Butts AAF (Fort Carson) Air Field
KFCS : now visible

Airfield :











YOU CAN JOIN US ON...

 
LOGIN :

Register | Disclaimer

   EN    FR    IT 

 









Legend :    VFR   Marginal VFR   IFR   Intensive IFR   Very Intensive IFR
Visi :
Ceiling :
>= 8 km
>= 3000ft
5 to 8 km
1000 to 3000 ft
1500m to 5 km
500 to 1000 ft
800 to 1500m
200 to 500 ft
< 800m
< 200 ft
Symbols :   Thunderstorms  Fog  Heavy snow  Heavy precipitations  Wind > 20 kt






- Airport Elevation : 5838 ft


KFCS - Butts AAF (Fort Carson) Air Field

CURRENT METAR :
  • 111158Z AUTO 33007KT 10SM FEW170 14/07 A3013 RMK AO2 SLP145 T01400071 10196 20137 55005 $

EXPIRED METARs :
  • 111058Z AUTO 31006KT 10SM FEW150 15/07 A3013 RMK AO2 SLP140 T01530068 $
  • 110958Z AUTO 31004KT 10SM SCT150 BKN180 16/08 A3014 RMK AO2 SLP143 T01610081 $

TAF TAF KFCS
Valid from the 11 at 05:00 until the 12 at 11:00 UTC


110500Z 1105/1211 33006KT 9999 FEW150 QNH3010INS
BECMG 1115/1116 25009KT 9999 SCT170 QNH3006INS
BECMG 1118/1119 26012KT 9999 BKN180 QNH3013INS
BECMG 1200/1201 VRB06KT 9999 FEW180 QNH3010INS
BECMG 1207/1208 31009KT 9999 SKC QNH3009INS TX34/1121Z TN15/1112Z
KZDV FIR / North America



MET'MAP, your aeronautical weather chart ! - Copyright ORBIFLY December 2007 - Disclaimer

ORBIFLY MET'MAP TEAM :

Programming & Development : Alexandra Zaïnal
Concept & original design : Baudouin d'Aumeries
Assistance for programming : Marc-Olivier Méhu
Technical & hardware support : Manuel Goepfert

Contact : metmap@orbifly.com




SOURCES & CREDITS :

   NOAA       Earth
Advisory